createdAt,value
2022-11-30T00:01:12.487Z,97.25
2022-11-30T00:03:39.341Z,99.43
2022-11-30T00:06:08.215Z,100.03
2022-11-30T00:08:34.890Z,106.40
2022-11-30T00:11:08.121Z,100.53
2022-11-30T00:13:34.841Z,105.00
2022-11-30T00:16:01.804Z,101.80
2022-11-30T00:18:28.562Z,106.90
2022-11-30T00:20:55.260Z,106.38
2022-11-30T00:23:21.907Z,102.28
2022-11-30T00:25:48.552Z,100.25
2022-11-30T00:28:15.226Z,104.47
2022-11-30T00:30:41.898Z,102.80
2022-11-30T00:33:08.588Z,99.82
2022-11-30T00:35:35.273Z,100.47
2022-11-30T00:38:02.621Z,103.18
2022-11-30T00:40:29.236Z,101.45
2022-11-30T00:42:55.908Z,103.15
2022-11-30T00:45:22.554Z,97.88
2022-11-30T00:47:49.208Z,97.18
2022-11-30T00:50:16.016Z,107.22
2022-11-30T00:52:42.729Z,101.47
2022-11-30T00:55:09.803Z,102.35
2022-11-30T00:57:36.539Z,107.40
2022-11-30T01:00:03.838Z,103.32
2022-11-30T01:02:30.565Z,104.38
2022-11-30T01:04:57.281Z,105.90
2022-11-30T01:07:24.020Z,104.45
2022-11-30T01:09:50.753Z,105.68
2022-11-30T01:12:17.554Z,110.22
2022-11-30T01:14:44.587Z,107.43
2022-11-30T01:17:11.521Z,106.75
2022-11-30T01:19:38.219Z,102.25
2022-11-30T01:22:04.859Z,108.13
2022-11-30T01:24:31.503Z,106.70
2022-11-30T01:26:58.185Z,111.97
2022-11-30T01:29:24.854Z,108.03
2022-11-30T01:31:51.637Z,105.47
2022-11-30T01:34:18.382Z,107.32
2022-11-30T01:36:45.040Z,106.90
2022-11-30T01:39:11.991Z,108.07
2022-11-30T01:41:38.731Z,106.68
2022-11-30T01:44:05.341Z,102.75
2022-11-30T01:46:40.476Z,108.90
2022-11-30T01:49:10.246Z,111.82
2022-11-30T01:52:00.583Z,106.25
2022-11-30T01:54:33.622Z,101.88
2022-11-30T01:57:06.781Z,109.35
2022-11-30T01:59:33.785Z,110.88
2022-11-30T02:02:00.565Z,107.50
2022-11-30T02:04:34.335Z,106.78
2022-11-30T02:07:02.927Z,105.57
2022-11-30T02:09:31.580Z,108.55
2022-11-30T02:11:59.119Z,111.15
2022-11-30T02:14:34.524Z,108.93
2022-11-30T02:17:20.091Z,107.07
2022-11-30T02:20:08.054Z,108.95
2022-11-30T02:23:26.307Z,110.07
2022-11-30T02:26:22.054Z,110.60
2022-11-30T02:29:06.306Z,104.93
2022-11-30T02:32:05.890Z,114.57
2022-11-30T02:34:35.559Z,106.40
2022-11-30T02:37:03.418Z,106.32
2022-11-30T02:39:30.237Z,104.60
2022-11-30T02:41:56.953Z,101.10
2022-11-30T02:44:24.530Z,106.57
2022-11-30T02:46:54.122Z,108.07
2022-11-30T02:49:33.216Z,102.00
2022-11-30T02:52:02.420Z,113.55
2022-11-30T02:54:29.166Z,102.88
2022-11-30T02:56:55.844Z,107.00
2022-11-30T02:59:22.532Z,105.90
2022-11-30T03:01:49.240Z,107.40
2022-11-30T03:04:15.929Z,108.50
2022-11-30T03:06:42.628Z,102.05
2022-11-30T03:09:09.385Z,103.32
2022-11-30T03:11:36.139Z,106.40
2022-11-30T03:14:03.414Z,104.70
2022-11-30T03:16:30.064Z,105.47
2022-11-30T03:18:58.107Z,102.45
2022-11-30T03:21:25.081Z,105.97
2022-11-30T03:23:51.729Z,107.50
2022-11-30T03:26:18.501Z,105.35
2022-11-30T03:28:45.292Z,104.07
2022-11-30T03:31:13.411Z,106.15
2022-11-30T03:33:43.707Z,106.53
2022-11-30T03:36:11.915Z,107.60
2022-11-30T03:38:39.078Z,109.95
2022-11-30T03:41:08.640Z,108.82
2022-11-30T03:43:36.060Z,107.45
2022-11-30T03:46:03.534Z,106.63
2022-11-30T03:48:30.441Z,104.82
2022-11-30T03:50:57.446Z,110.75
2022-11-30T03:53:25.283Z,109.15
2022-11-30T03:55:54.136Z,112.30
2022-11-30T03:58:21.185Z,110.20
2022-11-30T04:00:47.987Z,107.10
2022-11-30T04:03:14.762Z,105.20
2022-11-30T04:05:41.493Z,110.78
2022-11-30T04:08:08.342Z,107.95
2022-11-30T04:10:35.006Z,111.60
2022-11-30T04:13:01.641Z,106.32
2022-11-30T04:15:28.314Z,105.20
2022-11-30T04:17:54.959Z,109.35
2022-11-30T04:20:23.837Z,108.50
2022-11-30T04:22:50.539Z,104.03
2022-11-30T04:25:17.350Z,107.90
2022-11-30T04:27:45.873Z,108.22
2022-11-30T04:30:13.174Z,112.13
2022-11-30T04:32:39.898Z,106.95
2022-11-30T04:35:06.883Z,112.82
2022-11-30T04:37:33.510Z,109.57
2022-11-30T04:40:00.286Z,110.80
2022-11-30T04:42:26.916Z,112.53
2022-11-30T04:44:53.577Z,113.03
2022-11-30T04:47:20.338Z,110.40
2022-11-30T04:49:47.209Z,110.75
2022-11-30T04:52:13.929Z,108.00
2022-11-30T04:54:40.632Z,111.78
2022-11-30T04:57:07.352Z,110.45
2022-11-30T04:59:34.036Z,116.72
2022-11-30T05:02:00.835Z,112.82
2022-11-30T05:04:29.189Z,114.65
2022-11-30T05:06:56.031Z,112.18
2022-11-30T05:09:22.826Z,114.97
2022-11-30T05:11:51.179Z,108.95
2022-11-30T05:14:17.843Z,116.03
2022-11-30T05:16:47.524Z,113.22
2022-11-30T05:19:14.348Z,109.70
2022-11-30T05:21:45.606Z,110.15
2022-11-30T05:24:12.713Z,113.90
2022-11-30T05:26:39.697Z,113.63
2022-11-30T05:29:06.833Z,111.65
2022-11-30T05:31:34.179Z,113.63
2022-11-30T05:34:00.883Z,109.00
2022-11-30T05:36:27.533Z,111.22
2022-11-30T05:38:54.332Z,111.32
2022-11-30T05:41:21.094Z,116.88
2022-11-30T05:43:47.753Z,118.97
2022-11-30T05:46:14.594Z,115.85
2022-11-30T05:48:41.303Z,112.97
2022-11-30T05:51:13.378Z,117.95
2022-11-30T05:53:40.149Z,111.72
2022-11-30T05:56:10.703Z,118.53
2022-11-30T05:58:39.905Z,111.75
2022-11-30T06:01:06.943Z,111.82
2022-11-30T06:03:34.829Z,112.35
2022-11-30T06:06:04.344Z,114.68
2022-11-30T06:08:31.805Z,107.95
2022-11-30T06:11:01.081Z,117.57
2022-11-30T06:13:29.076Z,108.80
2022-11-30T06:15:59.372Z,109.75
2022-11-30T06:18:26.292Z,110.90
2022-11-30T06:20:52.972Z,114.70
2022-11-30T06:23:19.661Z,111.47
2022-11-30T06:25:46.369Z,107.72
2022-11-30T06:28:13.125Z,110.47
2022-11-30T06:30:39.828Z,111.28
2022-11-30T06:33:06.551Z,108.82
2022-11-30T06:35:33.287Z,103.90
2022-11-30T06:38:00.132Z,113.30
2022-11-30T06:40:27.120Z,104.78
2022-11-30T06:42:54.752Z,111.10
2022-11-30T06:45:21.477Z,111.68
2022-11-30T06:47:48.102Z,112.28
2022-11-30T06:50:14.794Z,110.35
2022-11-30T06:52:41.522Z,106.85
2022-11-30T06:55:08.495Z,104.38
2022-11-30T06:57:35.163Z,105.60
2022-11-30T07:00:01.988Z,105.40
2022-11-30T07:02:28.617Z,111.65
2022-11-30T07:04:55.316Z,107.32
2022-11-30T07:07:22.156Z,106.40
2022-11-30T07:09:49.920Z,105.18
2022-11-30T07:12:17.019Z,103.85
2022-11-30T07:14:43.735Z,106.80
2022-11-30T07:17:10.429Z,110.32
2022-11-30T07:19:37.090Z,102.80
2022-11-30T07:22:04.273Z,109.25
2022-11-30T07:24:30.933Z,103.90
2022-11-30T07:27:00.325Z,108.45
2022-11-30T07:29:27.152Z,107.07
2022-11-30T07:31:54.699Z,104.05
2022-11-30T07:34:23.660Z,100.13
2022-11-30T07:36:50.431Z,103.35
2022-11-30T07:39:17.097Z,107.00
2022-11-30T07:41:43.797Z,125.38
2022-11-30T07:44:11.256Z,112.18
2022-11-30T07:46:38.740Z,104.65
2022-11-30T07:49:06.750Z,108.18
2022-11-30T07:51:33.859Z,106.25
2022-11-30T07:54:00.930Z,105.35
2022-11-30T07:56:31.165Z,104.85
2022-11-30T07:58:59.993Z,100.00
2022-11-30T08:01:29.993Z,106.57
2022-11-30T08:03:57.439Z,101.57
2022-11-30T08:06:27.340Z,108.05
2022-11-30T08:08:58.008Z,103.28
2022-11-30T08:11:27.608Z,106.63
2022-11-30T08:13:54.390Z,108.70
2022-11-30T08:16:26.775Z,100.60
2022-11-30T08:18:55.868Z,108.57
2022-11-30T08:21:23.494Z,107.63
2022-11-30T08:23:52.593Z,108.28
2022-11-30T08:26:20.651Z,113.63
2022-11-30T08:28:49.691Z,115.35
2022-11-30T08:31:20.115Z,106.20
2022-11-30T08:33:47.061Z,114.10
2022-11-30T08:36:15.047Z,125.80
2022-11-30T08:38:43.363Z,120.88
2022-11-30T08:41:12.076Z,108.32
2022-11-30T08:43:39.253Z,105.75
2022-11-30T08:46:27.401Z,108.30
2022-11-30T08:49:12.612Z,100.63
2022-11-30T08:54:28.289Z,106.65
2022-11-30T08:56:54.985Z,98.78
2022-11-30T08:59:21.650Z,103.18
2022-11-30T09:01:48.550Z,97.22
2022-11-30T09:04:15.259Z,97.95
2022-11-30T09:06:47.784Z,101.03
2022-11-30T09:09:14.493Z,95.18
2022-11-30T09:11:41.625Z,98.55
2022-11-30T09:14:09.796Z,98.65
2022-11-30T09:16:36.663Z,106.93
2022-11-30T09:19:03.731Z,101.65
2022-11-30T09:21:30.620Z,102.93
2022-11-30T09:23:57.686Z,98.70
2022-11-30T09:26:24.374Z,104.38
2022-11-30T09:28:52.957Z,103.35
2022-11-30T09:31:22.624Z,99.70
2022-11-30T09:33:49.372Z,95.88
2022-11-30T09:36:19.018Z,99.68
2022-11-30T09:38:46.310Z,96.85
2022-11-30T09:41:38.162Z,95.78
2022-11-30T09:44:21.658Z,100.15
2022-11-30T09:46:59.456Z,98.22
2022-11-30T09:49:39.366Z,99.40
2022-11-30T09:52:13.724Z,96.82
2022-11-30T09:54:42.935Z,92.80
2022-11-30T09:57:34.520Z,94.78
2022-11-30T10:00:09.977Z,100.95
2022-11-30T10:02:38.382Z,101.03
2022-11-30T10:05:16.425Z,97.43
2022-11-30T10:08:11.350Z,92.82
2022-11-30T10:10:48.032Z,95.20
2022-11-30T10:13:58.192Z,104.90
2022-11-30T10:16:45.123Z,101.75
2022-11-30T10:19:56.953Z,95.65
2022-11-30T10:22:59.020Z,98.93
2022-11-30T10:25:39.817Z,94.40
2022-11-30T10:28:24.273Z,94.93
2022-11-30T10:30:53.146Z,94.90
2022-11-30T10:33:27.347Z,93.88
2022-11-30T10:35:58.184Z,102.82
2022-11-30T10:38:30.508Z,95.93
2022-11-30T10:41:24.661Z,96.03
2022-11-30T10:43:51.315Z,92.25
2022-11-30T10:46:32.471Z,92.97
2022-11-30T10:49:06.866Z,85.63
2022-11-30T10:51:37.450Z,101.53
2022-11-30T10:54:16.118Z,95.47
2022-11-30T10:56:43.825Z,90.03
2022-11-30T10:59:22.490Z,93.22
2022-11-30T11:01:49.542Z,92.03
2022-11-30T11:04:21.172Z,92.95
2022-11-30T11:06:49.928Z,91.10
2022-11-30T11:09:23.422Z,90.07
2022-11-30T11:11:54.806Z,101.95
2022-11-30T11:14:24.390Z,91.50
2022-11-30T11:17:03.030Z,92.40
2022-11-30T11:19:41.378Z,92.30
2022-11-30T11:22:21.297Z,92.28
2022-11-30T11:24:50.094Z,101.68
2022-11-30T11:27:21.412Z,95.57
2022-11-30T11:29:58.149Z,90.40
2022-11-30T11:32:25.087Z,94.15
2022-11-30T11:34:52.271Z,89.80
2022-11-30T11:37:32.682Z,88.20
2022-11-30T11:40:14.125Z,97.47
2022-11-30T11:42:53.198Z,90.60
2022-11-30T11:45:25.796Z,90.13
2022-11-30T11:48:06.936Z,97.63
2022-11-30T11:51:06.208Z,102.88
2022-11-30T11:53:39.401Z,94.60
2022-11-30T11:56:16.717Z,94.50
2022-11-30T11:59:04.548Z,91.38
2022-11-30T12:01:47.763Z,96.35
2022-11-30T12:04:29.314Z,98.32
2022-11-30T12:06:58.579Z,95.32
2022-11-30T12:09:31.117Z,87.72
2022-11-30T12:11:57.810Z,91.18
2022-11-30T12:14:25.938Z,94.55
2022-11-30T12:16:58.511Z,92.35
2022-11-30T12:19:55.568Z,96.22
2022-11-30T12:23:00.225Z,104.32
2022-11-30T12:25:30.451Z,101.75
2022-11-30T12:28:25.054Z,100.40
2022-11-30T12:31:12.543Z,100.93
2022-11-30T12:33:57.552Z,107.80
2022-11-30T12:36:49.789Z,106.30
2022-11-30T12:39:24.826Z,107.50
2022-11-30T12:42:17.703Z,103.75
2022-11-30T12:45:15.979Z,116.60
2022-11-30T12:48:10.668Z,111.60
2022-11-30T12:50:50.895Z,116.85
2022-11-30T12:53:56.815Z,117.72
2022-11-30T12:56:42.883Z,132.25
2022-11-30T12:59:19.039Z,121.70
2022-11-30T13:02:04.916Z,121.35
2022-11-30T13:05:06.678Z,117.05
2022-11-30T13:07:51.770Z,120.10
2022-11-30T13:10:32.759Z,112.10
2022-11-30T13:13:01.022Z,112.90
2022-11-30T13:15:30.647Z,106.88
2022-11-30T13:17:57.680Z,107.85
2022-11-30T13:20:48.521Z,112.10
2022-11-30T13:23:36.214Z,109.70
2022-11-30T13:26:29.828Z,114.85
2022-11-30T13:29:24.243Z,116.55
2022-11-30T13:32:22.272Z,112.63
2022-11-30T13:35:36.121Z,119.00
2022-11-30T13:41:09.203Z,115.53
2022-11-30T13:43:47.705Z,121.47
2022-11-30T13:46:21.147Z,118.30
2022-11-30T13:48:48.488Z,122.00
2022-11-30T13:51:36.290Z,126.35
2022-11-30T13:54:28.436Z,128.43
2022-11-30T13:56:55.316Z,136.80
2022-11-30T13:59:21.955Z,132.15
2022-11-30T14:01:49.435Z,137.50
2022-11-30T14:04:19.172Z,146.27
2022-11-30T14:06:51.289Z,131.23
2022-11-30T14:09:40.462Z,138.20
2022-11-30T14:12:31.879Z,142.95
2022-11-30T14:14:59.662Z,143.73
2022-11-30T14:17:28.758Z,146.68
2022-11-30T14:20:16.909Z,145.20
2022-11-30T14:22:44.061Z,145.27
2022-11-30T14:25:20.155Z,153.05
2022-11-30T14:27:50.839Z,160.18
2022-11-30T14:30:20.573Z,155.23
2022-11-30T14:32:55.507Z,155.80
2022-11-30T14:35:22.855Z,164.18
2022-11-30T14:37:58.349Z,159.88
2022-11-30T14:40:27.758Z,157.57
2022-11-30T14:43:00.087Z,163.85
2022-11-30T14:45:32.823Z,160.90
2022-11-30T14:48:07.100Z,164.57
2022-11-30T14:50:35.635Z,165.80
2022-11-30T14:53:14.559Z,162.63
2022-11-30T14:55:57.331Z,162.95
2022-11-30T14:58:40.812Z,156.05
2022-11-30T15:01:18.221Z,155.55
2022-11-30T15:03:45.517Z,158.82
2022-11-30T15:06:18.215Z,154.82
2022-11-30T15:08:53.110Z,151.95
2022-11-30T15:11:21.041Z,159.15
2022-11-30T15:13:53.280Z,149.27
2022-11-30T15:16:29.620Z,162.45
2022-11-30T15:18:58.720Z,163.07
2022-11-30T15:21:32.191Z,155.68
2022-11-30T15:24:01.344Z,164.32
2022-11-30T15:26:28.088Z,162.02
2022-11-30T15:29:04.113Z,164.88
2022-11-30T15:31:38.076Z,158.80
2022-11-30T15:34:06.488Z,159.95
2022-11-30T15:36:38.142Z,159.10
2022-11-30T15:39:08.011Z,158.90
2022-11-30T15:41:35.804Z,163.90
2022-11-30T15:44:02.521Z,159.68
2022-11-30T15:46:44.462Z,157.82
2022-11-30T15:49:12.887Z,165.20
2022-11-30T15:51:42.059Z,161.07
2022-11-30T15:54:08.722Z,159.02
2022-11-30T15:56:35.562Z,165.90
2022-11-30T15:59:20.455Z,167.02
2022-11-30T16:01:53.254Z,169.70
2022-11-30T16:04:20.002Z,169.30
2022-11-30T16:06:48.124Z,167.02
2022-11-30T16:09:28.099Z,170.00
2022-11-30T16:11:57.526Z,160.00
2022-11-30T16:14:24.375Z,165.82
2022-11-30T16:16:51.784Z,173.23
2022-11-30T16:19:18.538Z,170.63
2022-11-30T16:21:45.363Z,159.07
2022-11-30T16:24:14.565Z,160.05
2022-11-30T16:26:52.496Z,165.63
2022-11-30T16:29:19.916Z,159.98
2022-11-30T16:31:46.730Z,158.48
2022-11-30T16:34:13.418Z,162.20
2022-11-30T16:36:40.102Z,168.93
2022-11-30T16:39:06.952Z,163.15
2022-11-30T16:41:35.099Z,158.13
2022-11-30T16:44:01.809Z,158.52
2022-11-30T16:46:29.439Z,158.32
2022-11-30T16:48:56.413Z,157.60
2022-11-30T16:51:27.167Z,161.27
2022-11-30T16:53:54.598Z,159.07
2022-11-30T16:56:21.839Z,151.70
2022-11-30T16:58:48.718Z,165.65
2022-11-30T17:01:21.090Z,161.95
2022-11-30T17:03:50.661Z,162.90
2022-11-30T17:06:23.444Z,167.68
2022-11-30T17:08:50.539Z,170.65
2022-11-30T17:11:24.813Z,170.40
2022-11-30T17:13:51.479Z,162.55
2022-11-30T17:16:18.184Z,151.75
2022-11-30T17:18:44.877Z,157.68
2022-11-30T17:21:17.687Z,159.70
2022-11-30T17:23:45.197Z,158.32
2022-11-30T17:26:12.845Z,163.60
2022-11-30T17:28:39.989Z,165.65
2022-11-30T17:31:06.944Z,157.07
2022-11-30T17:33:34.596Z,158.45
2022-11-30T17:36:06.798Z,160.27
2022-11-30T17:38:35.432Z,174.93
2022-11-30T17:41:10.394Z,168.68
2022-11-30T17:43:38.926Z,169.88
2022-11-30T17:46:16.418Z,165.63
2022-11-30T17:48:43.996Z,169.32
2022-11-30T17:51:11.666Z,160.18
2022-11-30T17:53:39.837Z,162.18
2022-11-30T17:56:09.218Z,160.63
2022-11-30T17:58:43.715Z,158.65
2022-11-30T18:01:21.599Z,167.77
2022-11-30T18:03:49.424Z,163.85
2022-11-30T18:06:16.765Z,156.02
2022-11-30T18:08:44.099Z,154.73
2022-11-30T18:11:13.173Z,160.25
2022-11-30T18:13:40.261Z,167.23
2022-11-30T18:16:15.007Z,167.90
2022-11-30T18:18:47.452Z,163.47
2022-11-30T18:21:17.289Z,163.95
2022-11-30T18:23:44.228Z,156.98
2022-11-30T18:26:13.380Z,157.57
2022-11-30T18:28:40.590Z,151.65
2022-11-30T18:31:07.552Z,153.95
2022-11-30T18:33:35.151Z,159.05
2022-11-30T18:36:03.793Z,150.35
2022-11-30T18:38:34.296Z,152.80
2022-11-30T18:41:04.453Z,155.40
2022-11-30T18:43:31.120Z,147.05
2022-11-30T18:46:09.052Z,148.98
2022-11-30T18:48:37.370Z,143.70
2022-11-30T18:51:17.714Z,133.93
2022-11-30T18:53:45.076Z,133.70
2022-11-30T18:56:19.402Z,144.00
2022-11-30T18:58:47.534Z,144.35
2022-11-30T19:01:17.100Z,144.15
2022-11-30T19:03:48.830Z,147.43
2022-11-30T19:06:15.519Z,145.93
2022-11-30T19:08:42.244Z,146.68
2022-11-30T19:11:10.122Z,148.07
2022-11-30T19:13:36.863Z,147.00
2022-11-30T19:16:05.689Z,148.30
2022-11-30T19:18:32.902Z,154.15
2022-11-30T19:20:59.826Z,154.25
2022-11-30T19:23:29.489Z,158.15
2022-11-30T19:26:00.425Z,152.20
2022-11-30T19:28:29.254Z,150.02
2022-11-30T19:30:56.724Z,153.30
2022-11-30T19:33:23.509Z,156.52
2022-11-30T19:35:50.208Z,157.73
2022-11-30T19:38:16.983Z,160.80
2022-11-30T19:40:43.652Z,160.02
2022-11-30T19:43:10.440Z,156.45
2022-11-30T19:45:41.500Z,154.63
2022-11-30T19:48:08.607Z,157.48
2022-11-30T19:50:36.799Z,156.65
2022-11-30T19:53:03.736Z,155.50
2022-11-30T19:55:30.520Z,154.63
2022-11-30T19:57:57.392Z,160.63
2022-11-30T20:00:24.263Z,164.48
2022-11-30T20:02:51.221Z,162.18
2022-11-30T20:05:18.263Z,153.45
2022-11-30T20:07:45.095Z,155.55
2022-11-30T20:10:12.375Z,155.93
2022-11-30T20:12:40.251Z,152.68
2022-11-30T20:15:08.031Z,145.38
2022-11-30T20:17:35.039Z,154.10
2022-11-30T20:20:01.923Z,149.20
2022-11-30T20:22:28.672Z,145.82
2022-11-30T20:24:55.528Z,153.40
2022-11-30T20:27:22.329Z,149.07
2022-11-30T20:29:50.299Z,156.35
2022-11-30T20:32:17.342Z,160.32
2022-11-30T20:34:44.153Z,153.55
2022-11-30T20:37:11.661Z,147.10
2022-11-30T20:39:42.600Z,157.75
2022-11-30T20:42:12.171Z,147.07
2022-11-30T20:44:38.810Z,155.43
2022-11-30T20:47:05.623Z,154.18
2022-11-30T20:49:32.248Z,149.73
2022-11-30T20:51:58.978Z,152.18
2022-11-30T20:54:25.649Z,155.57
2022-11-30T20:56:52.323Z,152.35
2022-11-30T20:59:19.388Z,147.27
2022-11-30T21:01:47.025Z,148.05
2022-11-30T21:04:13.781Z,158.15
2022-11-30T21:06:40.432Z,148.32
2022-11-30T21:09:07.118Z,152.52
2022-11-30T21:11:33.804Z,143.48
2022-11-30T21:14:00.475Z,155.82
2022-11-30T21:16:29.087Z,150.27
2022-11-30T21:18:58.116Z,155.13
2022-11-30T21:21:26.306Z,150.00
2022-11-30T21:23:53.299Z,150.73
2022-11-30T21:26:29.956Z,144.25
2022-11-30T21:29:01.028Z,147.50
2022-11-30T21:31:27.824Z,151.43
2022-11-30T21:33:54.803Z,148.48
2022-11-30T21:36:22.593Z,152.48
2022-11-30T21:39:04.415Z,153.02
2022-11-30T21:41:33.691Z,156.15
2022-11-30T21:44:00.407Z,154.93
2022-11-30T21:46:27.132Z,157.98
2022-11-30T21:48:53.977Z,159.52
2022-11-30T21:51:23.112Z,160.30
2022-11-30T21:53:52.388Z,156.27
2022-11-30T21:56:21.495Z,157.88
2022-11-30T21:58:50.006Z,156.02
2022-11-30T22:01:30.499Z,150.05
2022-11-30T22:03:58.568Z,155.00
2022-11-30T22:06:27.314Z,147.68
2022-11-30T22:08:56.874Z,146.88
2022-11-30T22:11:23.644Z,147.10
2022-11-30T22:13:52.505Z,157.57
2022-11-30T22:16:20.318Z,156.43
2022-11-30T22:18:47.544Z,139.75
2022-11-30T22:21:16.765Z,149.50
2022-11-30T22:23:45.743Z,142.85
2022-11-30T22:26:15.325Z,144.18
2022-11-30T22:28:50.622Z,145.00
2022-11-30T22:31:18.988Z,142.00
2022-11-30T22:33:46.318Z,137.00
2022-11-30T22:36:19.117Z,151.20
2022-11-30T22:38:47.171Z,138.23
2022-11-30T22:41:16.599Z,142.05
2022-11-30T22:43:45.970Z,133.82
2022-11-30T22:46:16.816Z,135.63
2022-11-30T22:48:44.468Z,138.50
2022-11-30T22:51:13.260Z,136.98
2022-11-30T22:53:40.916Z,142.68
2022-11-30T22:56:13.004Z,145.40
2022-11-30T22:58:40.923Z,139.90
2022-11-30T23:01:10.347Z,142.07
2022-11-30T23:03:37.915Z,136.45
2022-11-30T23:06:06.025Z,141.32
2022-11-30T23:08:33.178Z,140.80
2022-11-30T23:11:05.061Z,138.18
2022-11-30T23:13:32.320Z,136.27
2022-11-30T23:15:59.667Z,144.98
2022-11-30T23:18:32.763Z,144.52
2022-11-30T23:21:09.035Z,149.40
2022-11-30T23:23:35.689Z,149.75
2022-11-30T23:26:12.792Z,150.30
2022-11-30T23:28:41.272Z,153.15
2022-11-30T23:31:33.717Z,142.93
2022-11-30T23:34:01.047Z,154.10
2022-11-30T23:36:28.089Z,159.80
2022-11-30T23:38:57.737Z,154.93
2022-11-30T23:41:25.545Z,152.40
2022-11-30T23:43:52.497Z,139.35
2022-11-30T23:46:19.436Z,139.85
2022-11-30T23:48:46.176Z,138.20
2022-11-30T23:51:12.838Z,140.27
2022-11-30T23:53:39.614Z,140.00
2022-11-30T23:56:08.772Z,130.13
2022-11-30T23:58:35.487Z,130.77
